sensor_id;sensor_type;location;lat;lon;timestamp;P1;P2;P0
51052;PMS5003;37093;37.716;-122.060;2023-06-22T00:00:06;8;4;
51052;PMS5003;37093;37.716;-122.060;2023-06-22T00:02:37;4;4;
51052;PMS5003;37093;37.716;-122.060;2023-06-22T00:05:06;3;3;
51052;PMS5003;37093;37.716;-122.060;2023-06-22T00:07:35;3;2;
51052;PMS5003;37093;37.716;-122.060;2023-06-22T00:10:04;6;3;
51052;PMS5003;37093;37.716;-122.060;2023-06-22T00:12:33;5;3;
51052;PMS5003;37093;37.716;-122.060;2023-06-22T00:15:03;7;4;
51052;PMS5003;37093;37.716;-122.060;2023-06-22T00:17:34;4;4;
51052;PMS5003;37093;37.716;-122.060;2023-06-22T00:20:03;5;4;
51052;PMS5003;37093;37.716;-122.060;2023-06-22T00:22:32;4;4;
51052;PMS5003;37093;37.716;-122.060;2023-06-22T00:25:01;6;3;
51052;PMS5003;37093;37.716;-122.060;2023-06-22T00:27:30;3;2;
51052;PMS5003;37093;37.716;-122.060;2023-06-22T00:29:58;7;4;
51052;PMS5003;37093;37.716;-122.060;2023-06-22T00:32:28;9;3;
51052;PMS5003;37093;37.716;-122.060;2023-06-22T00:34:57;5;3;
51052;PMS5003;37093;37.716;-122.060;2023-06-22T00:37:26;3;3;
51052;PMS5003;37093;37.716;-122.060;2023-06-22T00:39:56;6;3;
51052;PMS5003;37093;37.716;-122.060;2023-06-22T00:42:25;3;3;
51052;PMS5003;37093;37.716;-122.060;2023-06-22T00:44:58;3;3;
51052;PMS5003;37093;37.716;-122.060;2023-06-22T00:47:27;7;4;
51052;PMS5003;37093;37.716;-122.060;2023-06-22T00:49:59;4;4;
51052;PMS5003;37093;37.716;-122.060;2023-06-22T00:52:27;4;3;
51052;PMS5003;37093;37.716;-122.060;2023-06-22T00:54:56;4;4;
51052;PMS5003;37093;37.716;-122.060;2023-06-22T00:57:26;5;4;
51052;PMS5003;37093;37.716;-122.060;2023-06-22T00:59:55;9;5;
51052;PMS5003;37093;37.716;-122.060;2023-06-22T01:02:23;6;4;
51052;PMS5003;37093;37.716;-122.060;2023-06-22T01:04:55;6;3;
51052;PMS5003;37093;37.716;-122.060;2023-06-22T01:07:27;7;4;
51052;PMS5003;37093;37.716;-122.060;2023-06-22T01:10:06;5;4;
51052;PMS5003;37093;37.716;-122.060;2023-06-22T01:12:44;4;3;
51052;PMS5003;37093;37.716;-122.060;2023-06-22T01:15:18;4;4;
51052;PMS5003;37093;37.716;-122.060;2023-06-22T01:17:57;3;3;
51052;PMS5003;37093;37.716;-122.060;2023-06-22T01:20:32;16;6;
51052;PMS5003;37093;37.716;-122.060;2023-06-22T01:23:07;7;4;
51052;PMS5003;37093;37.716;-122.060;2023-06-22T01:25:45;4;3;
51052;PMS5003;37093;37.716;-122.060;2023-06-22T01:28:30;8;5;
51052;PMS5003;37093;37.716;-122.060;2023-06-22T01:31:09;6;5;
51052;PMS5003;37093;37.716;-122.060;2023-06-22T01:33:41;7;5;
51052;PMS5003;37093;37.716;-122.060;2023-06-22T01:36:11;4;4;
51052;PMS5003;37093;37.716;-122.060;2023-06-22T01:38:42;5;4;
51052;PMS5003;37093;37.716;-122.060;2023-06-22T01:41:20;9;6;
51052;PMS5003;37093;37.716;-122.060;2023-06-22T01:43:48;5;5;
51052;PMS5003;37093;37.716;-122.060;2023-06-22T01:46:20;4;4;
51052;PMS5003;37093;37.716;-122.060;2023-06-22T01:48:49;7;4;
51052;PMS5003;37093;37.716;-122.060;2023-06-22T01:51:22;6;5;
51052;PMS5003;37093;37.716;-122.060;2023-06-22T01:53:50;4;4;
51052;PMS5003;37093;37.716;-122.060;2023-06-22T01:56:19;6;4;
51052;PMS5003;37093;37.716;-122.060;2023-06-22T01:58:50;7;6;
51052;PMS5003;37093;37.716;-122.060;2023-06-22T02:01:26;7;4;
51052;PMS5003;37093;37.716;-122.060;2023-06-22T02:04:01;8;4;
51052;PMS5003;37093;37.716;-122.060;2023-06-22T02:06:34;6;4;
51052;PMS5003;37093;37.716;-122.060;2023-06-22T02:09:13;19;6;
51052;PMS5003;37093;37.716;-122.060;2023-06-22T02:11:47;8;4;
51052;PMS5003;37093;37.716;-122.060;2023-06-22T02:14:24;6;5;
51052;PMS5003;37093;37.716;-122.060;2023-06-22T02:16:53;7;6;
51052;PMS5003;37093;37.716;-122.060;2023-06-22T02:19:23;8;6;
51052;PMS5003;37093;37.716;-122.060;2023-06-22T02:21:52;7;6;
51052;PMS5003;37093;37.716;-122.060;2023-06-22T02:24:20;7;6;
51052;PMS5003;37093;37.716;-122.060;2023-06-22T02:26:50;10;8;
51052;PMS5003;37093;37.716;-122.060;2023-06-22T02:29:19;8;5;
51052;PMS5003;37093;37.716;-122.060;2023-06-22T02:31:48;10;6;
51052;PMS5003;37093;37.716;-122.060;2023-06-22T02:34:17;5;5;
51052;PMS5003;37093;37.716;-122.060;2023-06-22T02:36:46;6;5;
51052;PMS5003;37093;37.716;-122.060;2023-06-22T02:39:15;13;7;
51052;PMS5003;37093;37.716;-122.060;2023-06-22T02:41:46;11;9;
51052;PMS5003;37093;37.716;-122.060;2023-06-22T02:44:14;6;6;
51052;PMS5003;37093;37.716;-122.060;2023-06-22T02:46:45;6;6;
51052;PMS5003;37093;37.716;-122.060;2023-06-22T02:49:14;10;6;
51052;PMS5003;37093;37.716;-122.060;2023-06-22T02:51:44;10;6;
51052;PMS5003;37093;37.716;-122.060;2023-06-22T02:54:16;9;6;
51052;PMS5003;37093;37.716;-122.060;2023-06-22T02:56:44;8;5;
51052;PMS5003;37093;37.716;-122.060;2023-06-22T02:59:13;6;5;
51052;PMS5003;37093;37.716;-122.060;2023-06-22T03:01:42;11;8;
51052;PMS5003;37093;37.716;-122.060;2023-06-22T03:04:10;7;6;
51052;PMS5003;37093;37.716;-122.060;2023-06-22T03:06:39;8;6;
51052;PMS5003;37093;37.716;-122.060;2023-06-22T03:09:08;8;7;
51052;PMS5003;37093;37.716;-122.060;2023-06-22T03:11:36;6;4;
51052;PMS5003;37093;37.716;-122.060;2023-06-22T03:14:09;9;6;
51052;PMS5003;37093;37.716;-122.060;2023-06-22T03:16:37;6;6;
51052;PMS5003;37093;37.716;-122.060;2023-06-22T03:19:05;8;7;
51052;PMS5003;37093;37.716;-122.060;2023-06-22T03:21:34;5;5;
51052;PMS5003;37093;37.716;-122.060;2023-06-22T03:24:04;9;6;
51052;PMS5003;37093;37.716;-122.060;2023-06-22T03:26:36;9;7;
51052;PMS5003;37093;37.716;-122.060;2023-06-22T03:29:04;8;7;
51052;PMS5003;37093;37.716;-122.060;2023-06-22T03:31:33;8;7;
51052;PMS5003;37093;37.716;-122.060;2023-06-22T03:34:02;11;7;
51052;PMS5003;37093;37.716;-122.060;2023-06-22T03:36:30;9;8;
51052;PMS5003;37093;37.716;-122.060;2023-06-22T03:38:59;7;6;
51052;PMS5003;37093;37.716;-122.060;2023-06-22T03:41:27;12;7;
51052;PMS5003;37093;37.716;-122.060;2023-06-22T03:43:56;5;5;
51052;PMS5003;37093;37.716;-122.060;2023-06-22T03:46:24;7;6;
51052;PMS5003;37093;37.716;-122.060;2023-06-22T03:48:53;8;7;
51052;PMS5003;37093;37.716;-122.060;2023-06-22T03:51:21;11;9;
51052;PMS5003;37093;37.716;-122.060;2023-06-22T03:53:50;16;8;
51052;PMS5003;37093;37.716;-122.060;2023-06-22T03:56:19;8;6;
51052;PMS5003;37093;37.716;-122.060;2023-06-22T03:58:47;9;7;
51052;PMS5003;37093;37.716;-122.060;2023-06-22T04:01:16;9;7;
51052;PMS5003;37093;37.716;-122.060;2023-06-22T04:03:45;7;6;
51052;PMS5003;37093;37.716;-122.060;2023-06-22T04:06:13;10;9;
51052;PMS5003;37093;37.716;-122.060;2023-06-22T04:08:41;11;9;
51052;PMS5003;37093;37.716;-122.060;2023-06-22T04:11:11;11;8;
51052;PMS5003;37093;37.716;-122.060;2023-06-22T04:13:40;9;7;
51052;PMS5003;37093;37.716;-122.060;2023-06-22T04:16:10;8;7;
51052;PMS5003;37093;37.716;-122.060;2023-06-22T04:18:38;6;6;
51052;PMS5003;37093;37.716;-122.060;2023-06-22T04:21:07;9;7;
51052;PMS5003;37093;37.716;-122.060;2023-06-22T04:23:35;10;7;
51052;PMS5003;37093;37.716;-122.060;2023-06-22T04:26:04;11;8;
51052;PMS5003;37093;37.716;-122.060;2023-06-22T04:28:32;10;6;
51052;PMS5003;37093;37.716;-122.060;2023-06-22T04:31:01;13;8;
51052;PMS5003;37093;37.716;-122.060;2023-06-22T04:33:29;10;7;
51052;PMS5003;37093;37.716;-122.060;2023-06-22T04:35:58;9;7;
51052;PMS5003;37093;37.716;-122.060;2023-06-22T04:38:27;11;7;
51052;PMS5003;37093;37.716;-122.060;2023-06-22T04:40:55;4;4;
51052;PMS5003;37093;37.716;-122.060;2023-06-22T04:43:24;8;7;
51052;PMS5003;37093;37.716;-122.060;2023-06-22T04:45:52;8;5;
51052;PMS5003;37093;37.716;-122.060;2023-06-22T04:48:20;10;8;
51052;PMS5003;37093;37.716;-122.060;2023-06-22T04:50:49;11;8;
51052;PMS5003;37093;37.716;-122.060;2023-06-22T04:53:17;9;9;
51052;PMS5003;37093;37.716;-122.060;2023-06-22T04:55:46;8;7;
51052;PMS5003;37093;37.716;-122.060;2023-06-22T04:58:14;9;7;
51052;PMS5003;37093;37.716;-122.060;2023-06-22T05:00:43;7;7;
51052;PMS5003;37093;37.716;-122.060;2023-06-22T05:03:11;11;10;
51052;PMS5003;37093;37.716;-122.060;2023-06-22T05:05:40;9;6;
51052;PMS5003;37093;37.716;-122.060;2023-06-22T05:08:09;24;10;
51052;PMS5003;37093;37.716;-122.060;2023-06-22T05:10:37;10;9;
51052;PMS5003;37093;37.716;-122.060;2023-06-22T05:13:06;13;9;
51052;PMS5003;37093;37.716;-122.060;2023-06-22T05:15:34;11;9;
51052;PMS5003;37093;37.716;-122.060;2023-06-22T05:18:03;8;8;
51052;PMS5003;37093;37.716;-122.060;2023-06-22T05:20:31;8;5;
51052;PMS5003;37093;37.716;-122.060;2023-06-22T05:22:59;18;9;
51052;PMS5003;37093;37.716;-122.060;2023-06-22T05:25:28;9;6;
51052;PMS5003;37093;37.716;-122.060;2023-06-22T05:27:57;11;9;
51052;PMS5003;37093;37.716;-122.060;2023-06-22T05:30:25;12;9;
51052;PMS5003;37093;37.716;-122.060;2023-06-22T05:32:55;9;7;
51052;PMS5003;37093;37.716;-122.060;2023-06-22T05:35:23;8;8;
51052;PMS5003;37093;37.716;-122.060;2023-06-22T05:37:51;10;9;
51052;PMS5003;37093;37.716;-122.060;2023-06-22T05:40:20;9;8;
51052;PMS5003;37093;37.716;-122.060;2023-06-22T05:42:48;16;6;
51052;PMS5003;37093;37.716;-122.060;2023-06-22T05:45:17;7;6;
51052;PMS5003;37093;37.716;-122.060;2023-06-22T05:47:45;11;9;
51052;PMS5003;37093;37.716;-122.060;2023-06-22T05:50:14;11;8;
51052;PMS5003;37093;37.716;-122.060;2023-06-22T05:52:42;14;10;
51052;PMS5003;37093;37.716;-122.060;2023-06-22T05:55:11;10;8;
51052;PMS5003;37093;37.716;-122.060;2023-06-22T05:57:39;9;7;
51052;PMS5003;37093;37.716;-122.060;2023-06-22T06:00:08;6;5;
51052;PMS5003;37093;37.716;-122.060;2023-06-22T06:02:37;14;8;
51052;PMS5003;37093;37.716;-122.060;2023-06-22T06:05:06;11;8;
51052;PMS5003;37093;37.716;-122.060;2023-06-22T06:07:34;11;9;
51052;PMS5003;37093;37.716;-122.060;2023-06-22T06:10:03;12;9;
51052;PMS5003;37093;37.716;-122.060;2023-06-22T06:12:32;8;8;
51052;PMS5003;37093;37.716;-122.060;2023-06-22T06:15:02;16;10;
51052;PMS5003;37093;37.716;-122.060;2023-06-22T06:17:30;16;8;
51052;PMS5003;37093;37.716;-122.060;2023-06-22T06:19:59;8;8;
51052;PMS5003;37093;37.716;-122.060;2023-06-22T06:22:28;19;6;
51052;PMS5003;37093;37.716;-122.060;2023-06-22T06:24:57;14;11;
51052;PMS5003;37093;37.716;-122.060;2023-06-22T06:27:25;7;7;
51052;PMS5003;37093;37.716;-122.060;2023-06-22T06:29:53;11;8;
51052;PMS5003;37093;37.716;-122.060;2023-06-22T06:32:22;8;8;
51052;PMS5003;37093;37.716;-122.060;2023-06-22T06:34:51;8;8;
51052;PMS5003;37093;37.716;-122.060;2023-06-22T06:37:19;10;7;
51052;PMS5003;37093;37.716;-122.060;2023-06-22T06:39:48;11;10;
51052;PMS5003;37093;37.716;-122.060;2023-06-22T06:42:16;9;9;
51052;PMS5003;37093;37.716;-122.060;2023-06-22T06:44:44;10;9;
51052;PMS5003;37093;37.716;-122.060;2023-06-22T06:47:13;11;8;
51052;PMS5003;37093;37.716;-122.060;2023-06-22T06:49:41;11;7;
51052;PMS5003;37093;37.716;-122.060;2023-06-22T06:52:10;11;8;
51052;PMS5003;37093;37.716;-122.060;2023-06-22T06:54:38;18;7;
51052;PMS5003;37093;37.716;-122.060;2023-06-22T06:57:06;12;11;
51052;PMS5003;37093;37.716;-122.060;2023-06-22T06:59:34;8;5;
51052;PMS5003;37093;37.716;-122.060;2023-06-22T07:01:11;4;4;
51052;PMS5003;37093;37.716;-122.060;2023-06-22T07:03:40;20;9;
51052;PMS5003;37093;37.716;-122.060;2023-06-22T07:06:09;21;9;
51052;PMS5003;37093;37.716;-122.060;2023-06-22T07:08:38;12;11;
51052;PMS5003;37093;37.716;-122.060;2023-06-22T07:11:06;9;8;
51052;PMS5003;37093;37.716;-122.060;2023-06-22T07:13:35;10;8;
51052;PMS5003;37093;37.716;-122.060;2023-06-22T07:16:03;13;11;
51052;PMS5003;37093;37.716;-122.060;2023-06-22T07:18:31;12;11;
51052;PMS5003;37093;37.716;-122.060;2023-06-22T07:21:00;12;10;
51052;PMS5003;37093;37.716;-122.060;2023-06-22T07:23:28;14;11;
51052;PMS5003;37093;37.716;-122.060;2023-06-22T07:25:57;10;8;
51052;PMS5003;37093;37.716;-122.060;2023-06-22T07:28:26;13;11;
51052;PMS5003;37093;37.716;-122.060;2023-06-22T07:30:54;8;7;
51052;PMS5003;37093;37.716;-122.060;2023-06-22T07:33:22;11;10;
51052;PMS5003;37093;37.716;-122.060;2023-06-22T07:35:51;12;8;
51052;PMS5003;37093;37.716;-122.060;2023-06-22T07:38:20;9;9;
51052;PMS5003;37093;37.716;-122.060;2023-06-22T07:40:48;15;13;
51052;PMS5003;37093;37.716;-122.060;2023-06-22T07:43:16;16;10;
51052;PMS5003;37093;37.716;-122.060;2023-06-22T07:45:48;12;11;
51052;PMS5003;37093;37.716;-122.060;2023-06-22T07:48:17;13;10;
51052;PMS5003;37093;37.716;-122.060;2023-06-22T07:50:47;10;8;
51052;PMS5003;37093;37.716;-122.060;2023-06-22T07:53:16;14;9;
51052;PMS5003;37093;37.716;-122.060;2023-06-22T07:55:45;16;8;
51052;PMS5003;37093;37.716;-122.060;2023-06-22T07:58:13;9;6;
51052;PMS5003;37093;37.716;-122.060;2023-06-22T08:00:42;11;7;
51052;PMS5003;37093;37.716;-122.060;2023-06-22T08:03:10;12;8;
51052;PMS5003;37093;37.716;-122.060;2023-06-22T08:05:39;8;6;
51052;PMS5003;37093;37.716;-122.060;2023-06-22T08:08:07;9;5;
51052;PMS5003;37093;37.716;-122.060;2023-06-22T08:10:36;13;10;
51052;PMS5003;37093;37.716;-122.060;2023-06-22T08:13:03;9;8;
51052;PMS5003;37093;37.716;-122.060;2023-06-22T08:15:31;8;8;
51052;PMS5003;37093;37.716;-122.060;2023-06-22T08:17:59;7;6;
51052;PMS5003;37093;37.716;-122.060;2023-06-22T08:20:28;10;9;
51052;PMS5003;37093;37.716;-122.060;2023-06-22T08:22:57;10;8;
51052;PMS5003;37093;37.716;-122.060;2023-06-22T08:25:25;13;8;
51052;PMS5003;37093;37.716;-122.060;2023-06-22T08:27:54;8;7;
51052;PMS5003;37093;37.716;-122.060;2023-06-22T08:30:22;14;9;
51052;PMS5003;37093;37.716;-122.060;2023-06-22T08:32:51;10;10;
51052;PMS5003;37093;37.716;-122.060;2023-06-22T08:35:19;11;8;
51052;PMS5003;37093;37.716;-122.060;2023-06-22T08:37:49;10;7;
51052;PMS5003;37093;37.716;-122.060;2023-06-22T08:40:17;9;7;
51052;PMS5003;37093;37.716;-122.060;2023-06-22T08:42:47;13;10;
51052;PMS5003;37093;37.716;-122.060;2023-06-22T08:45:15;9;9;
51052;PMS5003;37093;37.716;-122.060;2023-06-22T08:47:43;17;8;
51052;PMS5003;37093;37.716;-122.060;2023-06-22T08:50:12;10;7;
51052;PMS5003;37093;37.716;-122.060;2023-06-22T08:52:40;13;8;
51052;PMS5003;37093;37.716;-122.060;2023-06-22T08:55:09;11;7;
51052;PMS5003;37093;37.716;-122.060;2023-06-22T08:57:37;13;8;
51052;PMS5003;37093;37.716;-122.060;2023-06-22T09:00:06;9;8;
51052;PMS5003;37093;37.716;-122.060;2023-06-22T09:02:36;8;7;
51052;PMS5003;37093;37.716;-122.060;2023-06-22T09:05:05;10;8;
51052;PMS5003;37093;37.716;-122.060;2023-06-22T09:07:34;16;9;
51052;PMS5003;37093;37.716;-122.060;2023-06-22T09:10:02;11;9;
51052;PMS5003;37093;37.716;-122.060;2023-06-22T09:12:31;14;11;
51052;PMS5003;37093;37.716;-122.060;2023-06-22T09:15:00;7;7;
51052;PMS5003;37093;37.716;-122.060;2023-06-22T09:17:28;13;10;
51052;PMS5003;37093;37.716;-122.060;2023-06-22T09:19:57;11;8;
51052;PMS5003;37093;37.716;-122.060;2023-06-22T09:22:25;9;7;
51052;PMS5003;37093;37.716;-122.060;2023-06-22T09:24:55;10;7;
51052;PMS5003;37093;37.716;-122.060;2023-06-22T09:27:23;11;8;
51052;PMS5003;37093;37.716;-122.060;2023-06-22T09:29:52;12;9;
51052;PMS5003;37093;37.716;-122.060;2023-06-22T09:32:20;12;8;
51052;PMS5003;37093;37.716;-122.060;2023-06-22T09:34:49;13;10;
51052;PMS5003;37093;37.716;-122.060;2023-06-22T09:37:18;13;8;
51052;PMS5003;37093;37.716;-122.060;2023-06-22T09:39:46;10;9;
51052;PMS5003;37093;37.716;-122.060;2023-06-22T09:42:14;8;8;
51052;PMS5003;37093;37.716;-122.060;2023-06-22T09:44:43;18;8;
51052;PMS5003;37093;37.716;-122.060;2023-06-22T09:47:11;6;5;
51052;PMS5003;37093;37.716;-122.060;2023-06-22T09:49:39;9;7;
51052;PMS5003;37093;37.716;-122.060;2023-06-22T09:52:08;13;10;
51052;PMS5003;37093;37.716;-122.060;2023-06-22T09:54:36;14;10;
51052;PMS5003;37093;37.716;-122.060;2023-06-22T09:57:06;14;9;
51052;PMS5003;37093;37.716;-122.060;2023-06-22T09:59:34;13;10;
51052;PMS5003;37093;37.716;-122.060;2023-06-22T10:02:03;12;11;
51052;PMS5003;37093;37.716;-122.060;2023-06-22T10:04:32;9;8;
51052;PMS5003;37093;37.716;-122.060;2023-06-22T10:07:00;7;7;
51052;PMS5003;37093;37.716;-122.060;2023-06-22T10:09:29;11;8;
51052;PMS5003;37093;37.716;-122.060;2023-06-22T10:11:58;14;9;
51052;PMS5003;37093;37.716;-122.060;2023-06-22T10:14:26;8;6;
51052;PMS5003;37093;37.716;-122.060;2023-06-22T10:16:54;9;7;
51052;PMS5003;37093;37.716;-122.060;2023-06-22T10:19:23;11;8;
51052;PMS5003;37093;37.716;-122.060;2023-06-22T10:21:51;10;8;
51052;PMS5003;37093;37.716;-122.060;2023-06-22T10:24:19;16;11;
51052;PMS5003;37093;37.716;-122.060;2023-06-22T10:26:47;14;9;
51052;PMS5003;37093;37.716;-122.060;2023-06-22T10:29:15;17;6;
51052;PMS5003;37093;37.716;-122.060;2023-06-22T10:31:44;8;8;
51052;PMS5003;37093;37.716;-122.060;2023-06-22T10:34:12;11;7;
51052;PMS5003;37093;37.716;-122.060;2023-06-22T10:36:41;8;6;
51052;PMS5003;37093;37.716;-122.060;2023-06-22T10:39:09;9;7;
51052;PMS5003;37093;37.716;-122.060;2023-06-22T10:41:38;10;8;
51052;PMS5003;37093;37.716;-122.060;2023-06-22T10:44:05;9;6;
51052;PMS5003;37093;37.716;-122.060;2023-06-22T10:46:34;10;8;
51052;PMS5003;37093;37.716;-122.060;2023-06-22T10:49:02;10;8;
51052;PMS5003;37093;37.716;-122.060;2023-06-22T10:51:31;11;8;
51052;PMS5003;37093;37.716;-122.060;2023-06-22T10:54:00;6;6;
51052;PMS5003;37093;37.716;-122.060;2023-06-22T10:56:28;13;8;
51052;PMS5003;37093;37.716;-122.060;2023-06-22T10:58:57;10;8;
51052;PMS5003;37093;37.716;-122.060;2023-06-22T11:01:25;11;8;
51052;PMS5003;37093;37.716;-122.060;2023-06-22T11:03:54;10;8;
51052;PMS5003;37093;37.716;-122.060;2023-06-22T11:06:22;9;8;
51052;PMS5003;37093;37.716;-122.060;2023-06-22T11:08:51;12;8;
51052;PMS5003;37093;37.716;-122.060;2023-06-22T11:11:19;8;6;
51052;PMS5003;37093;37.716;-122.060;2023-06-22T11:13:48;9;9;
51052;PMS5003;37093;37.716;-122.060;2023-06-22T11:16:16;10;9;
51052;PMS5003;37093;37.716;-122.060;2023-06-22T11:35:17;8;8;
51052;PMS5003;37093;37.716;-122.060;2023-06-22T11:37:44;11;9;
51052;PMS5003;37093;37.716;-122.060;2023-06-22T11:40:11;15;7;
51052;PMS5003;37093;37.716;-122.060;2023-06-22T11:42:39;11;8;
51052;PMS5003;37093;37.716;-122.060;2023-06-22T11:45:08;9;6;
51052;PMS5003;37093;37.716;-122.060;2023-06-22T11:47:37;10;9;
51052;PMS5003;37093;37.716;-122.060;2023-06-22T11:50:06;5;5;
51052;PMS5003;37093;37.716;-122.060;2023-06-22T11:52:35;10;8;
51052;PMS5003;37093;37.716;-122.060;2023-06-22T11:55:04;6;6;
51052;PMS5003;37093;37.716;-122.060;2023-06-22T11:57:33;9;9;
51052;PMS5003;37093;37.716;-122.060;2023-06-22T12:00:04;10;8;
51052;PMS5003;37093;37.716;-122.060;2023-06-22T12:02:33;6;5;
51052;PMS5003;37093;37.716;-122.060;2023-06-22T12:05:01;9;6;
51052;PMS5003;37093;37.716;-122.060;2023-06-22T12:07:29;7;7;
51052;PMS5003;37093;37.716;-122.060;2023-06-22T12:09:58;20;8;
51052;PMS5003;37093;37.716;-122.060;2023-06-22T12:12:27;8;7;
51052;PMS5003;37093;37.716;-122.060;2023-06-22T12:14:55;7;7;
51052;PMS5003;37093;37.716;-122.060;2023-06-22T12:17:23;11;8;
51052;PMS5003;37093;37.716;-122.060;2023-06-22T12:19:52;8;8;
51052;PMS5003;37093;37.716;-122.060;2023-06-22T12:22:21;9;7;
51052;PMS5003;37093;37.716;-122.060;2023-06-22T12:24:48;10;9;
51052;PMS5003;37093;37.716;-122.060;2023-06-22T12:27:17;10;8;
51052;PMS5003;37093;37.716;-122.060;2023-06-22T12:29:46;8;8;
51052;PMS5003;37093;37.716;-122.060;2023-06-22T12:32:14;8;8;
51052;PMS5003;37093;37.716;-122.060;2023-06-22T12:34:43;11;5;
51052;PMS5003;37093;37.716;-122.060;2023-06-22T12:37:11;8;6;
51052;PMS5003;37093;37.716;-122.060;2023-06-22T12:39:40;8;6;
51052;PMS5003;37093;37.716;-122.060;2023-06-22T12:42:09;12;9;
51052;PMS5003;37093;37.716;-122.060;2023-06-22T12:44:38;8;6;
51052;PMS5003;37093;37.716;-122.060;2023-06-22T12:47:06;7;7;
51052;PMS5003;37093;37.716;-122.060;2023-06-22T12:49:35;8;7;
51052;PMS5003;37093;37.716;-122.060;2023-06-22T12:52:08;8;5;
51052;PMS5003;37093;37.716;-122.060;2023-06-22T12:54:36;11;6;
51052;PMS5003;37093;37.716;-122.060;2023-06-22T12:57:05;9;7;
51052;PMS5003;37093;37.716;-122.060;2023-06-22T12:59:34;8;8;
51052;PMS5003;37093;37.716;-122.060;2023-06-22T13:02:03;7;7;
51052;PMS5003;37093;37.716;-122.060;2023-06-22T13:04:32;9;7;
51052;PMS5003;37093;37.716;-122.060;2023-06-22T13:07:01;9;9;
51052;PMS5003;37093;37.716;-122.060;2023-06-22T13:09:29;8;7;
51052;PMS5003;37093;37.716;-122.060;2023-06-22T13:11:59;14;7;
51052;PMS5003;37093;37.716;-122.060;2023-06-22T13:14:28;8;7;
51052;PMS5003;37093;37.716;-122.060;2023-06-22T13:16:55;9;9;
51052;PMS5003;37093;37.716;-122.060;2023-06-22T13:19:24;7;7;
51052;PMS5003;37093;37.716;-122.060;2023-06-22T13:21:52;7;7;
51052;PMS5003;37093;37.716;-122.060;2023-06-22T13:24:20;9;7;
51052;PMS5003;37093;37.716;-122.060;2023-06-22T13:26:49;11;9;
51052;PMS5003;37093;37.716;-122.060;2023-06-22T13:29:17;10;8;
51052;PMS5003;37093;37.716;-122.060;2023-06-22T13:31:46;7;7;
51052;PMS5003;37093;37.716;-122.060;2023-06-22T13:34:14;13;9;
51052;PMS5003;37093;37.716;-122.060;2023-06-22T13:36:42;10;7;
51052;PMS5003;37093;37.716;-122.060;2023-06-22T13:39:11;16;10;
51052;PMS5003;37093;37.716;-122.060;2023-06-22T13:41:39;13;9;
51052;PMS5003;37093;37.716;-122.060;2023-06-22T13:44:08;11;8;
51052;PMS5003;37093;37.716;-122.060;2023-06-22T13:46:37;12;10;
51052;PMS5003;37093;37.716;-122.060;2023-06-22T13:49:05;12;10;
51052;PMS5003;37093;37.716;-122.060;2023-06-22T13:51:33;15;8;
51052;PMS5003;37093;37.716;-122.060;2023-06-22T13:54:03;19;9;
51052;PMS5003;37093;37.716;-122.060;2023-06-22T13:56:32;12;8;
51052;PMS5003;37093;37.716;-122.060;2023-06-22T13:59:00;8;8;
51052;PMS5003;37093;37.716;-122.060;2023-06-22T14:01:28;7;7;
51052;PMS5003;37093;37.716;-122.060;2023-06-22T14:03:57;11;8;
51052;PMS5003;37093;37.716;-122.060;2023-06-22T14:06:25;10;10;
51052;PMS5003;37093;37.716;-122.060;2023-06-22T14:08:53;8;7;
51052;PMS5003;37093;37.716;-122.060;2023-06-22T14:11:22;9;7;
51052;PMS5003;37093;37.716;-122.060;2023-06-22T14:13:51;10;8;
51052;PMS5003;37093;37.716;-122.060;2023-06-22T14:16:20;9;7;
51052;PMS5003;37093;37.716;-122.060;2023-06-22T14:18:48;11;8;
51052;PMS5003;37093;37.716;-122.060;2023-06-22T14:21:16;6;6;
51052;PMS5003;37093;37.716;-122.060;2023-06-22T14:23:45;6;5;
51052;PMS5003;37093;37.716;-122.060;2023-06-22T14:26:13;8;6;
51052;PMS5003;37093;37.716;-122.060;2023-06-22T14:28:42;9;9;
51052;PMS5003;37093;37.716;-122.060;2023-06-22T14:31:11;9;7;
51052;PMS5003;37093;37.716;-122.060;2023-06-22T14:33:39;8;7;
51052;PMS5003;37093;37.716;-122.060;2023-06-22T14:36:08;6;5;
51052;PMS5003;37093;37.716;-122.060;2023-06-22T14:38:36;8;8;
51052;PMS5003;37093;37.716;-122.060;2023-06-22T14:41:05;8;6;
51052;PMS5003;37093;37.716;-122.060;2023-06-22T14:43:34;8;8;
51052;PMS5003;37093;37.716;-122.060;2023-06-22T14:46:02;9;7;
51052;PMS5003;37093;37.716;-122.060;2023-06-22T14:48:31;9;9;
51052;PMS5003;37093;37.716;-122.060;2023-06-22T14:50:59;12;7;
51052;PMS5003;37093;37.716;-122.060;2023-06-22T14:53:28;11;8;
51052;PMS5003;37093;37.716;-122.060;2023-06-22T14:55:56;19;9;
51052;PMS5003;37093;37.716;-122.060;2023-06-22T14:58:25;7;7;
51052;PMS5003;37093;37.716;-122.060;2023-06-22T15:00:53;7;6;
51052;PMS5003;37093;37.716;-122.060;2023-06-22T15:03:21;9;9;
51052;PMS5003;37093;37.716;-122.060;2023-06-22T15:05:50;10;9;
51052;PMS5003;37093;37.716;-122.060;2023-06-22T15:08:18;13;11;
51052;PMS5003;37093;37.716;-122.060;2023-06-22T15:10:46;10;9;
51052;PMS5003;37093;37.716;-122.060;2023-06-22T15:13:15;11;9;
51052;PMS5003;37093;37.716;-122.060;2023-06-22T15:15:43;9;8;
51052;PMS5003;37093;37.716;-122.060;2023-06-22T15:18:12;10;9;
51052;PMS5003;37093;37.716;-122.060;2023-06-22T15:20:41;14;10;
51052;PMS5003;37093;37.716;-122.060;2023-06-22T15:23:10;13;8;
51052;PMS5003;37093;37.716;-122.060;2023-06-22T15:25:39;7;6;
51052;PMS5003;37093;37.716;-122.060;2023-06-22T15:28:07;8;8;
51052;PMS5003;37093;37.716;-122.060;2023-06-22T15:30:36;8;7;
51052;PMS5003;37093;37.716;-122.060;2023-06-22T15:33:04;10;8;
51052;PMS5003;37093;37.716;-122.060;2023-06-22T15:35:33;7;7;
51052;PMS5003;37093;37.716;-122.060;2023-06-22T15:38:01;7;7;
51052;PMS5003;37093;37.716;-122.060;2023-06-22T15:40:29;17;8;
51052;PMS5003;37093;37.716;-122.060;2023-06-22T15:42:58;11;9;
51052;PMS5003;37093;37.716;-122.060;2023-06-22T15:45:27;10;9;
51052;PMS5003;37093;37.716;-122.060;2023-06-22T15:47:55;10;7;
51052;PMS5003;37093;37.716;-122.060;2023-06-22T15:50:23;11;9;
51052;PMS5003;37093;37.716;-122.060;2023-06-22T15:52:52;18;8;
51052;PMS5003;37093;37.716;-122.060;2023-06-22T15:55:20;10;9;
51052;PMS5003;37093;37.716;-122.060;2023-06-22T15:57:49;14;11;
51052;PMS5003;37093;37.716;-122.060;2023-06-22T16:00:17;9;7;
51052;PMS5003;37093;37.716;-122.060;2023-06-22T16:02:47;19;7;
51052;PMS5003;37093;37.716;-122.060;2023-06-22T16:05:15;9;8;
51052;PMS5003;37093;37.716;-122.060;2023-06-22T16:07:43;8;7;
51052;PMS5003;37093;37.716;-122.060;2023-06-22T16:10:12;8;8;
51052;PMS5003;37093;37.716;-122.060;2023-06-22T16:12:41;11;8;
51052;PMS5003;37093;37.716;-122.060;2023-06-22T16:15:10;9;7;
51052;PMS5003;37093;37.716;-122.060;2023-06-22T16:17:38;10;8;